New Blessing — 3EBD7 — position and weather

sailwx.info

Track history (hours):
 
Tides and Currents Weather Stations Pressure Air Temp Water Temp Dewpoint Dewpoint Depression Visibility Wind Speed Wind Dir Waves Ship Positions

New Blessing

Last reported at 2013-Aug-13 13:32 UTC. Time now 2014-Sep-02 21:42 UTC.
Position S 27°19' E 153°12'.
Warning: this ship's position is years out of date!

Length 176 m; draft 6.1 m.

Type: Cargo ship. MMSI: 367513184.

Date/timePositionNaut miles runAvg speedWind from/ knotsBaromVisibWave heightAir tempDewpointWater temp
2013-Aug-13 13:32S 27°19' E 153°12'5 4.1
2013-Aug-13 12:14S 27°23' E 153°09'0 0.0
2013-Aug-13 11:26S 27°23' E 153°09'0 0.0
2013-Aug-13 10:32S 27°23' E 153°09'0 0.0
2013-Aug-13 09:20S 27°23' E 153°09'0 0.0
2013-Aug-13 06:23S 27°23' E 153°09'0 0.0
2013-Aug-13 05:26S 27°23' E 153°09'0 0.0
2013-Aug-13 04:23S 27°23' E 153°09'0 0.0
2013-Aug-13 03:26S 27°23' E 153°09'0 0.0
2013-Aug-12 22:32S 27°23' E 153°09'0 0.0
2013-Aug-12 21:29S 27°23' E 153°09'0 0.0
2013-Aug-12 20:32S 27°23' E 153°09'0 0.0
2013-Aug-12 19:32S 27°23' E 153°09'0 0.0
2013-Aug-12 18:32S 27°23' E 153°09'0 0.0
2013-Aug-12 17:32S 27°23' E 153°09'0 0.0
2013-Aug-12 16:32S 27°23' E 153°09'0 0.0
2013-Aug-12 15:32S 27°23' E 153°09'0 0.0
2013-Aug-12 14:32S 27°23' E 153°09'0 0.0
2013-Aug-12 13:32S 27°23' E 153°09'0 0.0
2013-Aug-12 12:32S 27°23' E 153°09'0 0.0
2013-Aug-12 11:32S 27°23' E 153°09'0 0.0
2013-Aug-12 10:32S 27°23' E 153°09'0 0.0
2013-Aug-12 09:23S 27°23' E 153°09'0 0.0
2013-Aug-12 08:32S 27°23' E 153°09'0 0.0
2013-Aug-12 07:32S 27°23' E 153°09'0 0.0
2013-Aug-12 06:28S 27°23' E 153°09'0 0.0
2013-Aug-12 05:22S 27°23' E 153°09'0 0.0
2013-Aug-12 04:28S 27°23' E 153°09'0 0.0
2013-Aug-12 03:31S 27°23' E 153°09'3 2.7
2013-Aug-12 02:33S 27°21' E 153°11'1211.6
2013-Aug-12 01:33S 27°11' E 153°18'1111.0
2013-Aug-12 00:33S 27°01' E 153°15'1312.6
2013-Aug-11 23:33S 26°49' E 153°10'6 5.5
2013-Aug-11 22:33S 26°45' E 153°14'0 0.0
2013-Aug-11 20:29S 26°45' E 153°14'0 0.0
2013-Aug-11 19:32S 26°45' E 153°14'0 0.0
2013-Aug-11 18:32S 26°45' E 153°14'0 0.0
2013-Aug-11 17:29S 26°45' E 153°14'0 0.0
2013-Aug-11 16:08S 26°45' E 153°14'0 0.0
2013-Aug-11 15:32S 26°45' E 153°14'0 0.0
2013-Aug-11 14:32S 26°45' E 153°14'0 0.0
2013-Aug-11 13:32S 26°45' E 153°14'0 0.0
2013-Aug-11 12:32S 26°45' E 153°14'0 0.0
2013-Aug-11 11:32S 26°45' E 153°14'0 0.1
2013-Aug-11 10:23S 26°45' E 153°14'0 0.0
2013-Aug-11 09:32S 26°45' E 153°14'0 0.0
2013-Aug-11 08:29S 26°45' E 153°14'0 0.1
2013-Aug-11 07:32S 26°45' E 153°14'0 0.0
2013-Aug-11 06:08S 26°45' E 153°14'0 0.0
2013-Aug-11 05:32S 26°45' E 153°14'0 0.0
2013-Aug-11 00:14S 26°44' E 153°14'0 0.0
2013-Aug-10 22:14S 26°44' E 153°14'0 0.1
2013-Aug-10 21:32S 26°44' E 153°14'0 0.4
2013-Aug-10 20:33S 26°45' E 153°14'9 8.9
2013-Aug-10 19:33S 26°50' E 153°22'1712.4
2013-Aug-10 18:13S 27°02' E 153°35'1213.0
2013-Aug-10 17:17S 27°14' E 153°38'811.7
2013-Aug-10 16:33S 27°23' E 153°40'1110.9
2013-Aug-10 15:33S 27°33' E 153°43'1110.5
2013-Aug-10 14:33S 27°43' E 153°45'1010.0
2013-Aug-10 13:33S 27°53' E 153°48'1010.0
2013-Aug-10 12:33S 28°03' E 153°50'1010.4
2013-Aug-10 11:34S 28°13' E 153°49'1211.9
2013-Aug-10 10:34S 28°25' E 153°47'1211.5
2013-Aug-10 09:33S 28°37' E 153°47'1111.2
2013-Aug-10 08:34S 28°48' E 153°45'1212.2
2013-Aug-10 07:34S 28°60' E 153°43'1312.3
2013-Aug-10 06:30S 29°13' E 153°41'  
Track history (hours):
 
Tides and Currents Weather Stations Pressure Air Temp Water Temp Dewpoint Dewpoint Depression Visibility Wind Speed Wind Dir Waves Ship Positions

New Blessing

Last reported at 2013-Aug-13 13:32 UTC. Time now 2014-Sep-02 21:42 UTC.
Position S 27°19' E 153°12'.
Warning: this ship's position is years out of date!

Length 176 m; draft 6.1 m.

Type: Cargo ship. MMSI: 367513184.

Date/timePositionNaut miles runAvg speedWind from/ knotsBaromVisibWave heightAir tempDewpointWater temp
2013-Aug-13 13:32S 27°19' E 153°12'5 4.1
2013-Aug-13 12:14S 27°23' E 153°09'0 0.0
2013-Aug-13 11:26S 27°23' E 153°09'0 0.0
2013-Aug-13 10:32S 27°23' E 153°09'0 0.0
2013-Aug-13 09:20S 27°23' E 153°09'0 0.0
2013-Aug-13 06:23S 27°23' E 153°09'0 0.0
2013-Aug-13 05:26S 27°23' E 153°09'0 0.0
2013-Aug-13 04:23S 27°23' E 153°09'0 0.0
2013-Aug-13 03:26S 27°23' E 153°09'0 0.0
2013-Aug-12 22:32S 27°23' E 153°09'0 0.0
2013-Aug-12 21:29S 27°23' E 153°09'0 0.0
2013-Aug-12 20:32S 27°23' E 153°09'0 0.0
2013-Aug-12 19:32S 27°23' E 153°09'0 0.0
2013-Aug-12 18:32S 27°23' E 153°09'0 0.0
2013-Aug-12 17:32S 27°23' E 153°09'0 0.0
2013-Aug-12 16:32S 27°23' E 153°09'0 0.0
2013-Aug-12 15:32S 27°23' E 153°09'0 0.0
2013-Aug-12 14:32S 27°23' E 153°09'0 0.0
2013-Aug-12 13:32S 27°23' E 153°09'0 0.0
2013-Aug-12 12:32S 27°23' E 153°09'0 0.0
2013-Aug-12 11:32S 27°23' E 153°09'0 0.0
2013-Aug-12 10:32S 27°23' E 153°09'0 0.0
2013-Aug-12 09:23S 27°23' E 153°09'0 0.0
2013-Aug-12 08:32S 27°23' E 153°09'0 0.0
2013-Aug-12 07:32S 27°23' E 153°09'0 0.0
2013-Aug-12 06:28S 27°23' E 153°09'0 0.0
2013-Aug-12 05:22S 27°23' E 153°09'0 0.0
2013-Aug-12 04:28S 27°23' E 153°09'0 0.0
2013-Aug-12 03:31S 27°23' E 153°09'3 2.7
2013-Aug-12 02:33S 27°21' E 153°11'1211.6
2013-Aug-12 01:33S 27°11' E 153°18'1111.0
2013-Aug-12 00:33S 27°01' E 153°15'1312.6
2013-Aug-11 23:33S 26°49' E 153°10'6 5.5
2013-Aug-11 22:33S 26°45' E 153°14'0 0.0
2013-Aug-11 20:29S 26°45' E 153°14'0 0.0
2013-Aug-11 19:32S 26°45' E 153°14'0 0.0
2013-Aug-11 18:32S 26°45' E 153°14'0 0.0
2013-Aug-11 17:29S 26°45' E 153°14'0 0.0
2013-Aug-11 16:08S 26°45' E 153°14'0 0.0
2013-Aug-11 15:32S 26°45' E 153°14'0 0.0
2013-Aug-11 14:32S 26°45' E 153°14'0 0.0
2013-Aug-11 13:32S 26°45' E 153°14'0 0.0
2013-Aug-11 12:32S 26°45' E 153°14'0 0.0
2013-Aug-11 11:32S 26°45' E 153°14'0 0.1
2013-Aug-11 10:23S 26°45' E 153°14'0 0.0
2013-Aug-11 09:32S 26°45' E 153°14'0 0.0
2013-Aug-11 08:29S 26°45' E 153°14'0 0.1
2013-Aug-11 07:32S 26°45' E 153°14'0 0.0
2013-Aug-11 06:08S 26°45' E 153°14'0 0.0
2013-Aug-11 05:32S 26°45' E 153°14'0 0.0
2013-Aug-11 00:14S 26°44' E 153°14'0 0.0
2013-Aug-10 22:14S 26°44' E 153°14'0 0.1
2013-Aug-10 21:32S 26°44' E 153°14'0 0.4
2013-Aug-10 20:33S 26°45' E 153°14'9 8.9
2013-Aug-10 19:33S 26°50' E 153°22'1712.4
2013-Aug-10 18:13S 27°02' E 153°35'1213.0
2013-Aug-10 17:17S 27°14' E 153°38'811.7
2013-Aug-10 16:33S 27°23' E 153°40'1110.9
2013-Aug-10 15:33S 27°33' E 153°43'1110.5
2013-Aug-10 14:33S 27°43' E 153°45'1010.0
2013-Aug-10 13:33S 27°53' E 153°48'1010.0
2013-Aug-10 12:33S 28°03' E 153°50'1010.4
2013-Aug-10 11:34S 28°13' E 153°49'1211.9
2013-Aug-10 10:34S 28°25' E 153°47'1211.5
2013-Aug-10 09:33S 28°37' E 153°47'1111.2
2013-Aug-10 08:34S 28°48' E 153°45'1212.2
2013-Aug-10 07:34S 28°60' E 153°43'1312.3
2013-Aug-10 06:30S 29°13' E 153°41'  

Dump ship's entire track history